createdAt,value
2022-11-27T00:00:32.970Z,1024.41
2022-11-27T00:01:32.271Z,1024.32
2022-11-27T00:02:35.336Z,1024.34
2022-11-27T00:03:33.292Z,1024.34
2022-11-27T00:04:32.313Z,1024.30
2022-11-27T00:05:32.172Z,1024.27
2022-11-27T00:06:34.037Z,1024.30
2022-11-27T00:07:32.108Z,1024.29
2022-11-27T00:08:32.112Z,1024.24
2022-11-27T00:09:32.088Z,1024.27
2022-11-27T00:10:32.129Z,1024.26
2022-11-27T00:11:32.930Z,1024.24
2022-11-27T00:12:32.085Z,1024.24
2022-11-27T00:13:32.029Z,1024.21
2022-11-27T00:14:32.404Z,1024.25
2022-11-27T00:15:32.070Z,1024.20
2022-11-27T00:16:32.065Z,1024.25
2022-11-27T00:17:31.966Z,1024.23
2022-11-27T00:18:31.985Z,1024.18
2022-11-27T00:19:31.973Z,1024.19
2022-11-27T00:20:31.915Z,1024.21
2022-11-27T00:21:32.247Z,1024.15
2022-11-27T00:22:31.885Z,1024.12
2022-11-27T00:23:31.886Z,1024.10
2022-11-27T00:24:31.891Z,1024.15
2022-11-27T00:25:31.951Z,1024.11
2022-11-27T00:26:37.319Z,1024.09
2022-11-27T00:27:32.853Z,1024.19
2022-11-27T00:28:31.836Z,1024.21
2022-11-27T00:29:31.822Z,1024.14
2022-11-27T00:30:31.860Z,1024.13
2022-11-27T00:31:31.902Z,1024.16
2022-11-27T00:32:31.866Z,1024.14
2022-11-27T00:33:31.751Z,1024.11
2022-11-27T00:34:31.778Z,1024.07
2022-11-27T00:35:31.794Z,1024.09
2022-11-27T00:36:31.729Z,1024.08
2022-11-27T00:37:31.775Z,1024.13
2022-11-27T00:38:35.942Z,1024.09
2022-11-27T00:39:32.743Z,1024.08
2022-11-27T00:40:31.661Z,1024.07
2022-11-27T00:41:31.697Z,1024.07
2022-11-27T00:42:31.664Z,1024.11
2022-11-27T00:43:39.835Z,1024.08
2022-11-27T00:44:34.521Z,1024.04
2022-11-27T00:45:31.680Z,1024.06
2022-11-27T00:46:32.751Z,1024.05
2022-11-27T00:47:31.588Z,1023.98
2022-11-27T00:48:31.650Z,1024.06
2022-11-27T00:49:31.664Z,1023.99
2022-11-27T00:50:31.547Z,1024.00
2022-11-27T00:51:31.530Z,1024.00
2022-11-27T00:52:31.598Z,1023.94
2022-11-27T00:53:31.509Z,1024.02
2022-11-27T00:54:31.480Z,1023.98
2022-11-27T00:55:31.475Z,1024.03
2022-11-27T00:56:31.486Z,1023.99
2022-11-27T00:57:31.536Z,1024.02
2022-11-27T00:58:31.440Z,1024.02
2022-11-27T00:59:31.397Z,1024.04
2022-11-27T01:00:31.464Z,1024.02
2022-11-27T01:01:31.487Z,1024.05
2022-11-27T01:02:31.476Z,1024.03
2022-11-27T01:03:31.472Z,1024.03
2022-11-27T01:04:31.427Z,1024.02
2022-11-27T01:05:31.374Z,1024.02
2022-11-27T01:06:31.376Z,1023.94
2022-11-27T01:07:31.313Z,1023.91
2022-11-27T01:08:31.314Z,1023.95
2022-11-27T01:09:31.310Z,1023.98
2022-11-27T01:10:31.291Z,1023.98
2022-11-27T01:11:31.317Z,1024.03
2022-11-27T01:12:31.261Z,1023.97
2022-11-27T01:13:31.232Z,1024.02
2022-11-27T01:14:31.226Z,1024.01
2022-11-27T01:15:31.186Z,1024.03
2022-11-27T01:16:31.359Z,1024.03
2022-11-27T01:17:31.163Z,1024.02
2022-11-27T01:18:31.185Z,1023.99
2022-11-27T01:19:31.224Z,1023.99
2022-11-27T01:20:31.203Z,1023.98
2022-11-27T01:21:31.142Z,1024.02
2022-11-27T01:22:31.221Z,1024.02
2022-11-27T01:23:31.092Z,1023.99
2022-11-27T01:24:31.156Z,1024.01
2022-11-27T01:25:31.052Z,1024.00
2022-11-27T01:26:31.150Z,1023.95
2022-11-27T01:27:31.064Z,1023.96
2022-11-27T01:28:31.051Z,1023.98
2022-11-27T01:29:31.174Z,1024.00
2022-11-27T01:30:31.058Z,1024.04
2022-11-27T01:31:31.151Z,1024.02
2022-11-27T01:32:31.088Z,1023.94
2022-11-27T01:33:31.031Z,1024.04
2022-11-27T01:34:30.996Z,1023.95
2022-11-27T01:35:33.636Z,1023.97
2022-11-27T01:36:31.015Z,1024.00
2022-11-27T01:37:31.054Z,1023.94
2022-11-27T01:38:30.957Z,1023.96
2022-11-27T01:39:30.912Z,1023.96
2022-11-27T01:40:30.908Z,1023.98
2022-11-27T01:41:30.917Z,1023.95
2022-11-27T01:42:30.960Z,1023.95
2022-11-27T01:43:30.966Z,1023.93
2022-11-27T01:44:30.848Z,1023.86
2022-11-27T01:45:30.818Z,1023.91
2022-11-27T01:46:31.011Z,1023.90
2022-11-27T01:47:30.882Z,1023.90
2022-11-27T01:48:30.803Z,1023.86
2022-11-27T01:49:30.849Z,1023.82
2022-11-27T01:50:30.794Z,1023.75
2022-11-27T01:51:30.795Z,1023.84
2022-11-27T01:52:30.738Z,1023.75
2022-11-27T01:53:30.773Z,1023.85
2022-11-27T01:54:30.716Z,1023.82
2022-11-27T01:55:30.696Z,1023.81
2022-11-27T01:56:30.704Z,1023.81
2022-11-27T01:57:30.815Z,1023.81
2022-11-27T02:37:13.653Z,1023.30
2022-11-27T02:40:39.433Z,1023.30
2022-11-27T02:43:43.911Z,1023.37
2022-11-27T02:45:56.718Z,1023.28
2022-11-27T02:46:56.296Z,1023.26
2022-11-27T02:47:56.329Z,1023.20
2022-11-27T02:48:57.117Z,1023.10
2022-11-27T02:50:08.944Z,1023.06
2022-11-27T02:57:57.354Z,1022.87
2022-11-27T03:00:33.713Z,1022.85
2022-11-27T03:07:06.035Z,1022.90
2022-11-27T03:08:05.870Z,1022.93
2022-11-27T03:18:42.797Z,1022.73
2022-11-27T03:26:54.970Z,1022.62
2022-11-27T04:26:36.327Z,1022.32
2022-11-27T04:31:47.298Z,1022.13
2022-11-27T04:34:25.439Z,1022.04
2022-11-27T04:42:18.247Z,1021.88
2022-11-27T04:43:26.203Z,1021.89
2022-11-27T04:54:22.773Z,1022.03
2022-11-27T05:04:43.978Z,1021.76
2022-11-27T05:41:25.284Z,1021.69
2022-11-27T06:58:42.052Z,1020.82
2022-11-27T06:59:41.959Z,1020.78
2022-11-27T07:00:41.978Z,1020.75
2022-11-27T07:01:41.952Z,1020.73
2022-11-27T07:02:41.920Z,1020.73
2022-11-27T07:03:41.895Z,1020.77
2022-11-27T07:04:42.161Z,1020.68
2022-11-27T07:05:41.971Z,1020.71
2022-11-27T07:06:41.887Z,1020.65
2022-11-27T07:07:43.949Z,1020.54
2022-11-27T07:08:41.898Z,1020.57
2022-11-27T07:09:41.810Z,1020.56
2022-11-27T07:10:41.860Z,1020.59
2022-11-27T07:11:41.814Z,1020.59
2022-11-27T07:12:41.839Z,1020.59
2022-11-27T07:13:41.791Z,1020.52
2022-11-27T07:14:41.996Z,1020.49
2022-11-27T07:15:41.744Z,1020.51
2022-11-27T07:16:41.864Z,1020.51
2022-11-27T07:17:41.800Z,1020.53
2022-11-27T07:18:41.756Z,1020.54
2022-11-27T07:19:41.706Z,1020.46
2022-11-27T07:20:41.725Z,1020.51
2022-11-27T07:21:41.732Z,1020.46
2022-11-27T07:22:41.659Z,1020.47
2022-11-27T07:23:41.752Z,1020.43
2022-11-27T07:24:41.977Z,1020.41
2022-11-27T07:25:41.654Z,1020.30
2022-11-27T07:26:41.592Z,1020.31
2022-11-27T07:27:41.601Z,1020.26
2022-11-27T07:28:41.657Z,1020.22
2022-11-27T07:29:41.595Z,1020.20
2022-11-27T07:30:41.604Z,1020.22
2022-11-27T07:31:41.560Z,1020.17
2022-11-27T07:32:41.516Z,1020.21
2022-11-27T07:33:41.518Z,1020.18
2022-11-27T07:34:41.783Z,1020.20
2022-11-27T07:35:41.498Z,1020.16
2022-11-27T07:36:41.463Z,1020.12
2022-11-27T07:37:41.517Z,1020.16
2022-11-27T07:38:41.501Z,1020.20
2022-11-27T07:40:01.318Z,1020.19
2022-11-27T07:40:42.436Z,1020.13
2022-11-27T07:41:42.411Z,1020.26
2022-11-27T07:42:41.384Z,1020.17
2022-11-27T07:43:41.450Z,1020.15
2022-11-27T07:44:41.636Z,1020.06
2022-11-27T07:45:41.394Z,1020.07
2022-11-27T07:46:41.348Z,1020.10
2022-11-27T07:47:41.371Z,1020.09
2022-11-27T07:48:41.434Z,1020.09
2022-11-27T07:49:41.339Z,1020.08
2022-11-27T07:50:41.300Z,1020.12
2022-11-27T07:51:41.260Z,1020.07
2022-11-27T07:52:42.322Z,1020.05
2022-11-27T07:53:41.292Z,1020.08
2022-11-27T07:54:41.513Z,1020.06
2022-11-27T07:55:41.239Z,1020.08
2022-11-27T07:56:41.190Z,1020.03
2022-11-27T07:57:41.211Z,1020.01
2022-11-27T07:58:41.298Z,1020.03
2022-11-27T07:59:47.012Z,1019.95
2022-11-27T08:00:42.219Z,1020.00
2022-11-27T08:01:41.163Z,1019.99
2022-11-27T08:02:41.158Z,1020.04
2022-11-27T08:03:41.171Z,1020.07
2022-11-27T08:04:41.421Z,1019.96
2022-11-27T08:05:41.153Z,1019.96
2022-11-27T08:06:42.267Z,1019.88
2022-11-27T08:07:41.257Z,1019.81
2022-11-27T08:08:41.048Z,1019.93
2022-11-27T08:09:41.123Z,1019.94
2022-11-27T08:13:13.163Z,1019.90
2022-11-27T08:14:12.646Z,1019.94
2022-11-27T08:15:12.653Z,1020.03
2022-11-27T08:16:12.669Z,1019.99
2022-11-27T08:17:12.508Z,1019.91
2022-11-27T08:18:12.621Z,1019.92
2022-11-27T08:19:24.477Z,1019.84
2022-11-27T08:21:27.295Z,1019.78
2022-11-27T08:22:27.103Z,1019.87
2022-11-27T08:23:38.051Z,1019.87
2022-11-27T08:24:27.069Z,1019.92
2022-11-27T08:25:27.074Z,1020.03
2022-11-27T08:26:27.041Z,1020.11
2022-11-27T08:27:27.031Z,1020.22
2022-11-27T08:28:27.071Z,1020.15
2022-11-27T08:29:32.584Z,1020.10
2022-11-27T08:30:28.019Z,1020.02
2022-11-27T08:31:27.046Z,1019.99
2022-11-27T08:32:26.966Z,1020.00
2022-11-27T08:33:27.082Z,1019.94
2022-11-27T08:34:28.829Z,1019.93
2022-11-27T08:35:27.032Z,1019.88
2022-11-27T08:36:26.926Z,1019.87
2022-11-27T08:37:26.906Z,1019.90
2022-11-27T08:38:26.925Z,1019.85
2022-11-27T08:39:27.124Z,1019.87
2022-11-27T08:40:27.182Z,1019.98
2022-11-27T08:41:26.934Z,1020.11
2022-11-27T08:42:26.964Z,1020.12
2022-11-27T08:43:26.926Z,1020.07
2022-11-27T08:44:26.889Z,1020.10
2022-11-27T08:45:26.927Z,1020.02
2022-11-27T08:46:26.842Z,1019.95
2022-11-27T08:47:26.831Z,1019.93
2022-11-27T08:48:26.842Z,1019.94
2022-11-27T08:49:26.788Z,1019.95
2022-11-27T08:50:26.750Z,1019.96
2022-11-27T08:51:38.002Z,1020.06
2022-11-27T08:52:27.873Z,1019.99
2022-11-27T08:53:26.826Z,1019.96
2022-11-27T08:54:26.739Z,1019.98
2022-11-27T08:55:26.772Z,1020.01
2022-11-27T08:56:26.694Z,1020.02
2022-11-27T08:57:26.671Z,1020.02
2022-11-27T08:58:26.682Z,1019.92
2022-11-27T08:59:26.754Z,1020.02
2022-11-27T09:00:28.301Z,1019.92
2022-11-27T09:01:26.770Z,1019.90
2022-11-27T09:02:26.593Z,1019.84
2022-11-27T09:03:26.592Z,1019.87
2022-11-27T09:04:26.660Z,1019.90
2022-11-27T09:05:26.611Z,1019.86
2022-11-27T09:06:26.669Z,1019.90
2022-11-27T09:07:26.565Z,1019.89
2022-11-27T09:08:26.619Z,1019.85
2022-11-27T09:09:26.618Z,1019.83
2022-11-27T09:10:26.484Z,1019.73
2022-11-27T09:11:26.482Z,1019.72
2022-11-27T09:12:27.239Z,1019.69
2022-11-27T09:13:27.456Z,1019.71
2022-11-27T09:14:26.601Z,1019.70
2022-11-27T09:15:26.495Z,1019.70
2022-11-27T09:16:26.449Z,1019.63
2022-11-27T09:17:26.422Z,1019.59
2022-11-27T09:18:26.518Z,1019.65
2022-11-27T09:19:26.376Z,1019.70
2022-11-27T09:20:26.358Z,1019.63
2022-11-27T09:21:26.367Z,1019.64
2022-11-27T09:22:26.359Z,1019.61
2022-11-27T09:23:26.300Z,1019.60
2022-11-27T09:24:26.371Z,1019.55
2022-11-27T09:25:26.317Z,1019.61
2022-11-27T09:26:26.335Z,1019.56
2022-11-27T09:27:26.282Z,1019.61
2022-11-27T09:28:31.171Z,1019.58
2022-11-27T09:29:27.243Z,1019.62
2022-11-27T09:30:26.276Z,1019.55
2022-11-27T09:31:26.285Z,1019.54
2022-11-27T09:32:26.300Z,1019.51
2022-11-27T09:33:26.276Z,1019.45
2022-11-27T09:34:26.236Z,1019.48
2022-11-27T09:35:26.282Z,1019.47
2022-11-27T09:36:26.214Z,1019.44
2022-11-27T09:37:26.175Z,1019.42
2022-11-27T09:38:26.185Z,1019.41
2022-11-27T09:39:26.123Z,1019.38
2022-11-27T09:40:26.180Z,1019.44
2022-11-27T09:41:26.192Z,1019.41
2022-11-27T09:42:26.077Z,1019.37
2022-11-27T09:43:26.089Z,1019.47
2022-11-27T09:44:26.086Z,1019.34
2022-11-27T09:45:26.092Z,1019.42
2022-11-27T09:46:26.110Z,1019.39
2022-11-27T09:47:26.016Z,1019.37
2022-11-27T09:48:26.055Z,1019.31
2022-11-27T09:49:26.028Z,1019.30
2022-11-27T09:50:25.983Z,1019.31
2022-11-27T09:51:26.009Z,1019.33
2022-11-27T09:52:25.939Z,1019.31
2022-11-27T09:53:25.939Z,1019.38
2022-11-27T09:54:25.979Z,1019.41
2022-11-27T09:55:25.912Z,1019.34
2022-11-27T09:56:25.937Z,1019.41
2022-11-27T09:57:25.887Z,1019.29
2022-11-27T09:58:25.935Z,1019.30
2022-11-27T09:59:25.841Z,1019.27
2022-11-27T10:00:25.868Z,1019.27
2022-11-27T10:01:32.131Z,1019.27
2022-11-27T10:02:26.884Z,1019.30
2022-11-27T10:03:25.900Z,1019.32
2022-11-27T10:04:25.836Z,1019.31
2022-11-27T10:05:25.842Z,1019.27
2022-11-27T10:06:25.768Z,1019.31
2022-11-27T10:07:25.794Z,1019.33
2022-11-27T10:08:25.774Z,1019.25
2022-11-27T10:09:26.282Z,1019.22
2022-11-27T10:10:25.773Z,1019.26
2022-11-27T10:11:25.773Z,1019.25
2022-11-27T10:12:25.742Z,1019.24
2022-11-27T10:13:25.659Z,1019.28
2022-11-27T10:14:25.689Z,1019.27
2022-11-27T10:15:25.673Z,1019.19
2022-11-27T10:16:25.654Z,1019.18
2022-11-27T10:17:25.643Z,1019.19
2022-11-27T10:18:25.637Z,1019.27
2022-11-27T10:19:25.623Z,1019.23
2022-11-27T10:20:25.621Z,1019.20
2022-11-27T10:21:25.566Z,1019.16
2022-11-27T10:22:25.571Z,1019.07
2022-11-27T10:23:25.579Z,1019.13
2022-11-27T10:24:25.580Z,1019.09
2022-11-27T10:25:25.575Z,1019.08
2022-11-27T10:26:25.511Z,1019.07
2022-11-27T10:27:25.512Z,1019.13
2022-11-27T10:28:25.593Z,1019.02
2022-11-27T10:29:25.484Z,1018.99
2022-11-27T10:30:25.436Z,1018.95
2022-11-27T10:31:25.537Z,1019.00
2022-11-27T10:33:26.469Z,1018.95
2022-11-27T10:34:25.435Z,1018.99
2022-11-27T10:35:25.381Z,1018.90
2022-11-27T10:36:25.388Z,1018.89
2022-11-27T10:37:25.399Z,1018.84
2022-11-27T10:38:25.358Z,1018.81
2022-11-27T10:39:25.344Z,1018.82
2022-11-27T10:40:25.349Z,1018.78
2022-11-27T10:41:48.159Z,1018.86
2022-11-27T10:42:26.299Z,1018.85
2022-11-27T10:43:25.311Z,1018.90
2022-11-27T10:44:25.291Z,1018.90
2022-11-27T10:45:25.251Z,1018.88
2022-11-27T10:46:25.290Z,1018.87
2022-11-27T10:47:28.553Z,1018.86
2022-11-27T10:48:26.247Z,1018.82
2022-11-27T10:49:25.254Z,1018.85
2022-11-27T10:50:25.192Z,1018.71
2022-11-27T10:51:25.170Z,1018.76
2022-11-27T10:52:25.150Z,1018.70
2022-11-27T10:53:25.179Z,1018.69
2022-11-27T10:54:25.151Z,1018.68
2022-11-27T10:55:25.146Z,1018.66
2022-11-27T10:56:25.142Z,1018.59
2022-11-27T10:57:25.158Z,1018.63
2022-11-27T10:58:25.096Z,1018.66
2022-11-27T10:59:28.683Z,1018.53
2022-11-27T11:00:26.127Z,1018.55
2022-11-27T11:01:25.240Z,1018.57
2022-11-27T11:02:25.115Z,1018.57
2022-11-27T11:03:25.047Z,1018.53
2022-11-27T11:04:37.467Z,1018.49
2022-11-27T11:05:50.475Z,1018.54
2022-11-27T11:06:26.319Z,1018.51
2022-11-27T11:07:25.145Z,1018.55
2022-11-27T11:08:24.988Z,1018.42
2022-11-27T11:09:24.975Z,1018.34
2022-11-27T11:10:24.953Z,1018.37
2022-11-27T11:11:24.962Z,1018.38
2022-11-27T11:12:24.948Z,1018.33
2022-11-27T11:13:24.952Z,1018.26
2022-11-27T11:14:24.899Z,1018.21
2022-11-27T11:15:24.882Z,1018.24
2022-11-27T11:16:27.307Z,1018.18
2022-11-27T11:17:25.056Z,1018.21
2022-11-27T11:18:24.829Z,1018.15
2022-11-27T11:19:24.878Z,1018.16
2022-11-27T11:20:24.821Z,1018.13
2022-11-27T11:21:24.864Z,1018.14
2022-11-27T11:22:24.856Z,1018.06
2022-11-27T11:23:24.781Z,1018.01
2022-11-27T11:24:24.744Z,1017.99
2022-11-27T11:25:24.771Z,1017.98
2022-11-27T11:26:24.740Z,1017.92
2022-11-27T11:27:24.752Z,1017.94
2022-11-27T11:28:24.695Z,1017.95
2022-11-27T11:29:24.725Z,1017.88
2022-11-27T11:30:24.663Z,1017.91
2022-11-27T11:31:24.725Z,1017.83
2022-11-27T11:32:24.663Z,1017.85
2022-11-27T11:33:24.641Z,1017.81
2022-11-27T11:34:24.613Z,1017.73
2022-11-27T11:35:24.654Z,1017.68
2022-11-27T11:36:24.581Z,1017.72
2022-11-27T11:37:24.633Z,1017.63
2022-11-27T11:38:24.560Z,1017.62
2022-11-27T11:39:24.570Z,1017.57
2022-11-27T11:40:24.562Z,1017.53
2022-11-27T11:41:24.541Z,1017.56
2022-11-27T11:42:24.536Z,1017.65
2022-11-27T11:43:24.547Z,1017.62
2022-11-27T11:44:24.493Z,1017.61
2022-11-27T11:45:27.515Z,1017.45
2022-11-27T11:46:25.512Z,1017.48
2022-11-27T11:47:24.485Z,1017.53
2022-11-27T11:48:24.478Z,1017.33
2022-11-27T11:49:24.455Z,1017.34
2022-11-27T11:50:24.432Z,1017.37
2022-11-27T11:51:29.125Z,1017.34
2022-11-27T11:52:25.375Z,1017.37
2022-11-27T11:53:24.426Z,1017.28
2022-11-27T11:54:24.357Z,1017.24
2022-11-27T11:55:24.350Z,1017.32
2022-11-27T11:56:24.359Z,1017.22
2022-11-27T11:57:24.356Z,1017.14
2022-11-27T11:58:24.348Z,1017.06
2022-11-27T11:59:24.324Z,1017.20
2022-11-27T12:00:29.844Z,1017.07
2022-11-27T12:01:27.512Z,1017.05
2022-11-27T12:02:24.312Z,1017.08
2022-11-27T12:03:24.316Z,1017.06
2022-11-27T12:04:24.240Z,1017.00
2022-11-27T12:05:24.252Z,1016.95
2022-11-27T12:06:24.222Z,1016.98
2022-11-27T12:07:24.272Z,1016.93
2022-11-27T12:08:24.261Z,1016.95
2022-11-27T12:09:24.193Z,1016.88
2022-11-27T12:10:24.204Z,1016.80
2022-11-27T12:11:24.204Z,1016.82
2022-11-27T12:12:24.117Z,1016.83
2022-11-27T12:13:25.297Z,1016.80
2022-11-27T12:14:24.115Z,1016.79
2022-11-27T12:15:24.103Z,1016.69
2022-11-27T12:16:24.130Z,1016.75
2022-11-27T12:17:24.066Z,1016.56
2022-11-27T12:18:24.044Z,1016.67
2022-11-27T12:19:24.080Z,1016.58
2022-11-27T12:20:24.026Z,1016.60
2022-11-27T12:21:24.054Z,1016.50
2022-11-27T12:22:24.011Z,1016.44
2022-11-27T12:23:24.058Z,1016.40
2022-11-27T12:24:23.974Z,1016.33
2022-11-27T12:25:24.022Z,1016.48
2022-11-27T12:26:23.989Z,1016.44
2022-11-27T12:27:23.969Z,1016.32
2022-11-27T12:28:23.915Z,1016.34
2022-11-27T12:29:23.954Z,1016.32
2022-11-27T12:30:23.932Z,1016.30
2022-11-27T12:31:24.009Z,1016.27
2022-11-27T12:32:23.894Z,1016.21
2022-11-27T12:33:23.882Z,1016.32
2022-11-27T12:34:23.890Z,1016.26
2022-11-27T12:35:23.838Z,1016.19
2022-11-27T12:36:23.849Z,1016.26
2022-11-27T12:37:23.844Z,1016.19
2022-11-27T12:38:23.789Z,1016.21
2022-11-27T12:39:23.833Z,1016.16
2022-11-27T12:40:23.766Z,1016.18
2022-11-27T12:41:23.778Z,1016.13
2022-11-27T12:42:23.756Z,1016.05
2022-11-27T12:43:23.740Z,1016.08
2022-11-27T12:44:23.724Z,1016.11
2022-11-27T12:45:23.859Z,1016.06
2022-11-27T12:46:23.867Z,1016.08
2022-11-27T12:47:23.724Z,1016.06
2022-11-27T12:48:23.649Z,1016.07
2022-11-27T12:49:23.659Z,1015.99
2022-11-27T12:50:23.668Z,1015.96
2022-11-27T12:51:23.688Z,1015.97
2022-11-27T12:52:23.667Z,1015.99
2022-11-27T12:53:25.103Z,1015.96
2022-11-27T12:54:23.613Z,1016.03
2022-11-27T12:55:23.609Z,1015.94
2022-11-27T12:56:23.632Z,1015.94
2022-11-27T12:57:23.581Z,1015.97
2022-11-27T12:58:23.534Z,1015.97
2022-11-27T12:59:25.227Z,1015.99
2022-11-27T13:00:23.508Z,1016.05
2022-11-27T13:01:26.580Z,1015.93
2022-11-27T13:02:23.622Z,1016.04
2022-11-27T13:03:23.707Z,1015.94
2022-11-27T13:04:23.529Z,1015.87
2022-11-27T13:05:23.523Z,1015.77
2022-11-27T13:06:23.425Z,1015.81
2022-11-27T13:07:23.632Z,1015.78
2022-11-27T13:08:23.454Z,1015.76
2022-11-27T13:09:23.482Z,1015.72
2022-11-27T13:10:23.476Z,1015.80
2022-11-27T13:11:23.540Z,1015.79
2022-11-27T13:12:23.411Z,1015.73
2022-11-27T13:13:23.354Z,1015.82
2022-11-27T13:14:23.344Z,1015.73
2022-11-27T13:15:23.339Z,1015.68
2022-11-27T13:16:23.361Z,1015.69
2022-11-27T13:17:23.306Z,1015.65
2022-11-27T13:18:23.275Z,1015.63
2022-11-27T13:19:23.313Z,1015.66
2022-11-27T13:20:23.270Z,1015.66
2022-11-27T13:21:23.277Z,1015.58
2022-11-27T13:22:23.279Z,1015.65
2022-11-27T13:23:23.251Z,1015.66
2022-11-27T13:24:23.220Z,1015.63
2022-11-27T13:25:23.243Z,1015.52
2022-11-27T13:26:26.328Z,1015.55
2022-11-27T13:27:23.172Z,1015.54
2022-11-27T13:28:23.151Z,1015.48
2022-11-27T13:29:23.213Z,1015.52
2022-11-27T13:30:23.163Z,1015.46
2022-11-27T13:31:23.239Z,1015.42
2022-11-27T13:32:23.140Z,1015.46
2022-11-27T13:33:23.100Z,1015.46
2022-11-27T13:34:23.139Z,1015.40
2022-11-27T13:35:23.098Z,1015.39
2022-11-27T13:36:23.049Z,1015.41
2022-11-27T13:37:23.068Z,1015.50
2022-11-27T13:38:23.035Z,1015.43
2022-11-27T13:39:23.078Z,1015.40
2022-11-27T13:40:23.010Z,1015.41
2022-11-27T13:41:23.045Z,1015.36
2022-11-27T13:42:23.011Z,1015.35
2022-11-27T13:43:23.024Z,1015.36
2022-11-27T13:44:23.039Z,1015.39
2022-11-27T13:45:22.954Z,1015.40
2022-11-27T13:46:23.097Z,1015.37
2022-11-27T13:47:23.004Z,1015.38
2022-11-27T13:48:23.934Z,1015.41
2022-11-27T13:49:22.929Z,1015.37
2022-11-27T13:50:26.945Z,1015.49
2022-11-27T13:51:23.891Z,1015.43
2022-11-27T13:52:22.883Z,1015.51
2022-11-27T13:53:22.871Z,1015.48
2022-11-27T13:54:28.761Z,1015.53
2022-11-27T13:55:23.841Z,1015.53
2022-11-27T13:56:22.794Z,1015.49
2022-11-27T13:57:22.816Z,1015.49
2022-11-27T13:58:22.795Z,1015.51
2022-11-27T13:59:22.820Z,1015.41
2022-11-27T14:00:22.835Z,1015.37
2022-11-27T14:01:22.859Z,1015.39
2022-11-27T14:02:22.857Z,1015.39
2022-11-27T14:03:22.740Z,1015.25
2022-11-27T14:04:22.763Z,1015.37
2022-11-27T14:05:22.696Z,1015.44
2022-11-27T14:06:22.665Z,1015.35
2022-11-27T14:07:22.690Z,1015.37
2022-11-27T14:08:22.721Z,1015.45
2022-11-27T14:09:22.656Z,1015.47
2022-11-27T14:10:22.652Z,1015.44
2022-11-27T14:11:22.647Z,1015.45
2022-11-27T14:12:22.634Z,1015.47
2022-11-27T14:13:27.412Z,1015.38
2022-11-27T14:14:23.616Z,1015.29
2022-11-27T14:15:22.575Z,1015.28
2022-11-27T14:16:22.632Z,1015.21
2022-11-27T14:17:22.573Z,1015.17
2022-11-27T14:18:22.510Z,1015.20
2022-11-27T14:19:22.700Z,1015.26
2022-11-27T14:20:22.534Z,1015.05
2022-11-27T14:21:22.482Z,1014.97
2022-11-27T14:22:22.490Z,1014.97
2022-11-27T14:23:22.481Z,1014.91
2022-11-27T14:24:22.494Z,1014.89
2022-11-27T14:25:22.470Z,1014.87
2022-11-27T14:26:22.429Z,1014.93
2022-11-27T14:27:22.406Z,1014.95
2022-11-27T14:28:22.430Z,1015.02
2022-11-27T14:29:22.416Z,1015.05
2022-11-27T14:30:22.421Z,1015.16
2022-11-27T14:31:22.390Z,1015.10
2022-11-27T14:32:22.367Z,1015.16
2022-11-27T14:33:22.332Z,1015.21
2022-11-27T14:34:24.693Z,1015.24
2022-11-27T14:35:22.365Z,1015.21
2022-11-27T14:36:22.285Z,1015.27
2022-11-27T14:37:22.329Z,1015.31
2022-11-27T14:38:22.280Z,1015.33
2022-11-27T14:39:22.266Z,1015.36
2022-11-27T14:40:22.308Z,1015.29
2022-11-27T14:41:22.259Z,1015.32
2022-11-27T14:42:26.298Z,1015.34
2022-11-27T14:43:23.250Z,1015.38
2022-11-27T14:44:22.190Z,1015.37
2022-11-27T14:45:22.188Z,1015.40
2022-11-27T14:46:22.313Z,1015.43
2022-11-27T14:47:22.175Z,1015.45
2022-11-27T14:48:22.163Z,1015.49
2022-11-27T14:49:22.115Z,1015.46
2022-11-27T14:50:22.138Z,1015.47
2022-11-27T14:51:22.135Z,1015.43
2022-11-27T14:52:22.108Z,1015.43
2022-11-27T14:53:22.073Z,1015.36
2022-11-27T14:54:22.130Z,1015.34
2022-11-27T14:55:22.082Z,1015.35
2022-11-27T14:56:22.064Z,1015.31
2022-11-27T14:57:22.033Z,1015.32
2022-11-27T14:58:22.065Z,1015.32
2022-11-27T14:59:22.028Z,1015.37
2022-11-27T15:00:22.061Z,1015.37
2022-11-27T15:01:21.994Z,1015.33
2022-11-27T15:02:27.614Z,1015.35
2022-11-27T15:03:22.975Z,1015.31
2022-11-27T15:04:21.942Z,1015.27
2022-11-27T15:05:21.949Z,1015.27
2022-11-27T15:06:21.932Z,1015.22
2022-11-27T15:07:22.060Z,1015.19
2022-11-27T15:08:22.003Z,1015.22
2022-11-27T15:09:31.680Z,1015.12
2022-11-27T15:10:22.919Z,1015.13
2022-11-27T15:11:49.236Z,1015.12
2022-11-27T15:12:22.865Z,1015.07
2022-11-27T15:13:21.803Z,1015.12
2022-11-27T15:14:21.814Z,1015.16
2022-11-27T15:15:21.840Z,1015.03
2022-11-27T15:16:21.882Z,1015.16
2022-11-27T15:17:21.783Z,1015.13
2022-11-27T15:18:21.760Z,1015.17
2022-11-27T15:19:21.790Z,1015.15
2022-11-27T15:20:21.761Z,1015.20
2022-11-27T15:21:21.730Z,1015.22
2022-11-27T15:22:21.738Z,1015.18
2022-11-27T15:23:21.767Z,1015.15
2022-11-27T15:24:21.708Z,1015.12
2022-11-27T15:25:21.661Z,1015.07
2022-11-27T15:26:25.167Z,1015.01
2022-11-27T15:27:21.659Z,1015.08
2022-11-27T15:28:21.633Z,1014.93
2022-11-27T15:29:21.627Z,1014.95
2022-11-27T15:30:21.668Z,1014.92
2022-11-27T15:31:21.777Z,1014.88
2022-11-27T15:32:23.610Z,1014.85
2022-11-27T15:33:21.586Z,1014.81
2022-11-27T15:34:21.554Z,1014.77
2022-11-27T15:35:21.560Z,1014.76
2022-11-27T15:36:21.586Z,1014.70
2022-11-27T15:37:21.500Z,1014.72
2022-11-27T15:38:21.535Z,1014.66
2022-11-27T15:39:21.545Z,1014.66
2022-11-27T15:40:21.489Z,1014.71
2022-11-27T15:41:21.475Z,1014.69
2022-11-27T15:42:21.508Z,1014.64
2022-11-27T15:43:21.429Z,1014.72
2022-11-27T15:44:21.424Z,1014.76
2022-11-27T15:45:21.465Z,1014.78
2022-11-27T15:46:21.451Z,1014.71
2022-11-27T15:47:21.395Z,1014.75
2022-11-27T15:48:21.434Z,1014.87
2022-11-27T15:49:21.374Z,1014.89
2022-11-27T15:50:21.357Z,1014.95
2022-11-27T15:51:21.373Z,1014.96
2022-11-27T15:52:21.335Z,1014.93
2022-11-27T15:53:21.323Z,1014.94
2022-11-27T15:54:21.317Z,1014.96
2022-11-27T15:55:21.275Z,1014.97
2022-11-27T15:56:21.292Z,1015.07
2022-11-27T15:57:21.272Z,1015.03
2022-11-27T15:58:21.302Z,1014.98
2022-11-27T15:59:21.227Z,1014.91
2022-11-27T16:00:21.281Z,1014.90
2022-11-27T16:01:21.253Z,1014.81
2022-11-27T16:02:21.245Z,1014.82
2022-11-27T16:03:21.174Z,1014.80
2022-11-27T16:04:21.211Z,1014.81
2022-11-27T16:05:21.156Z,1014.75
2022-11-27T16:06:21.144Z,1014.67
2022-11-27T16:07:21.165Z,1014.64
2022-11-27T16:08:21.222Z,1014.72
2022-11-27T16:09:21.092Z,1014.71
2022-11-27T16:10:21.111Z,1014.69
2022-11-27T16:11:21.073Z,1014.60
2022-11-27T16:12:21.083Z,1014.66
2022-11-27T16:13:21.069Z,1014.63
2022-11-27T16:14:21.089Z,1014.67
2022-11-27T16:15:23.282Z,1014.56
2022-11-27T16:16:21.130Z,1014.63
2022-11-27T16:17:21.013Z,1014.73
2022-11-27T16:18:20.993Z,1014.71
2022-11-27T16:19:20.963Z,1014.69
2022-11-27T16:20:20.980Z,1014.66
2022-11-27T16:21:23.314Z,1014.52
2022-11-27T16:22:21.966Z,1014.49
2022-11-27T16:23:20.942Z,1014.47
2022-11-27T16:24:20.987Z,1014.32
2022-11-27T16:25:20.936Z,1014.36
2022-11-27T16:26:20.908Z,1014.36
2022-11-27T16:27:20.893Z,1014.28
2022-11-27T16:28:20.884Z,1014.41
2022-11-27T16:29:20.840Z,1014.45
2022-11-27T16:30:20.850Z,1014.40
2022-11-27T16:31:20.896Z,1014.40
2022-11-27T16:32:20.822Z,1014.36
2022-11-27T16:33:20.813Z,1014.31
2022-11-27T16:34:20.820Z,1014.32
2022-11-27T16:35:20.787Z,1014.46
2022-11-27T16:36:20.785Z,1014.46
2022-11-27T16:37:20.738Z,1014.42
2022-11-27T16:38:20.766Z,1014.51
2022-11-27T16:39:20.705Z,1014.51
2022-11-27T16:40:20.726Z,1014.40
2022-11-27T16:41:20.737Z,1014.35
2022-11-27T16:42:20.687Z,1014.33
2022-11-27T16:43:20.851Z,1014.38
2022-11-27T16:44:20.720Z,1014.34
2022-11-27T16:45:20.713Z,1014.33
2022-11-27T16:46:20.703Z,1014.35
2022-11-27T16:47:20.598Z,1014.32
2022-11-27T16:48:20.604Z,1014.26